createdAt,value
2018-05-14T00:00:12.368Z,17.00
2018-05-14T00:02:40.141Z,16.90
2018-05-14T00:05:07.890Z,16.90
2018-05-14T00:07:35.788Z,16.90
2018-05-14T00:10:03.632Z,16.90
2018-05-14T00:12:31.363Z,16.90
2018-05-14T00:14:59.156Z,16.90
2018-05-14T00:17:26.919Z,17.00
2018-05-14T00:19:54.658Z,17.00
2018-05-14T00:22:22.407Z,17.00
2018-05-14T00:24:50.224Z,17.00
2018-05-14T00:27:18.048Z,17.00
2018-05-14T00:29:45.742Z,16.90
2018-05-14T00:32:13.509Z,16.90
2018-05-14T00:34:41.245Z,16.80
2018-05-14T00:37:09.026Z,16.90
2018-05-14T00:39:37.729Z,16.80
2018-05-14T00:42:06.086Z,16.80
2018-05-14T00:44:33.904Z,16.80
2018-05-14T00:47:02.522Z,16.80
2018-05-14T00:49:30.550Z,16.70
2018-05-14T00:51:58.373Z,16.80
2018-05-14T00:54:26.680Z,16.80
2018-05-14T00:56:54.456Z,16.90
2018-05-14T00:59:22.276Z,16.70
2018-05-14T01:01:50.197Z,16.70
2018-05-14T01:04:18.052Z,16.80
2018-05-14T01:06:45.839Z,16.80
2018-05-14T01:09:14.410Z,16.80
2018-05-14T01:11:42.244Z,16.80
2018-05-14T01:14:10.237Z,16.90
2018-05-14T01:16:38.094Z,16.80
2018-05-14T01:19:05.868Z,16.80
2018-05-14T01:21:33.740Z,16.70
2018-05-14T01:24:01.522Z,16.70
2018-05-14T01:26:30.594Z,16.80
2018-05-14T01:28:58.933Z,16.90
2018-05-14T01:31:27.676Z,16.80
2018-05-14T01:34:02.076Z,16.80
2018-05-14T01:36:32.837Z,16.80
2018-05-14T01:39:01.469Z,16.80
2018-05-14T01:41:29.902Z,16.80
2018-05-14T01:43:58.471Z,16.70
2018-05-14T01:46:26.389Z,16.70
2018-05-14T01:48:54.263Z,16.70
2018-05-14T01:51:22.128Z,16.70
2018-05-14T01:53:49.933Z,16.80
2018-05-14T01:56:18.969Z,16.80
2018-05-14T01:58:50.109Z,16.70
2018-05-14T02:01:19.736Z,16.70
2018-05-14T02:03:48.719Z,16.80
2018-05-14T02:06:21.269Z,16.80
2018-05-14T02:08:55.575Z,16.70
2018-05-14T02:11:28.116Z,16.70
2018-05-14T02:14:00.734Z,16.70
2018-05-14T02:16:29.861Z,16.70
2018-05-14T02:18:57.684Z,16.80
2018-05-14T02:21:26.290Z,16.80
2018-05-14T02:23:54.264Z,16.80
2018-05-14T02:26:25.670Z,16.80
2018-05-14T02:28:53.904Z,16.80
2018-05-14T02:31:21.998Z,16.70
2018-05-14T02:33:51.623Z,16.70
2018-05-14T02:36:21.226Z,16.70
2018-05-14T02:38:52.329Z,16.70
2018-05-14T02:41:22.405Z,16.60
2018-05-14T02:43:50.624Z,16.60
2018-05-14T02:46:18.474Z,16.70
2018-05-14T02:48:49.498Z,16.70
2018-05-14T02:51:20.975Z,16.60
2018-05-14T02:53:53.081Z,16.70
2018-05-14T02:56:21.457Z,16.70
2018-05-14T02:58:50.424Z,16.70
2018-05-14T03:01:22.019Z,16.70
2018-05-14T03:03:53.799Z,16.70
2018-05-14T03:06:23.146Z,16.70
2018-05-14T03:08:52.109Z,16.70
2018-05-14T03:11:25.274Z,16.70
2018-05-14T03:13:54.129Z,16.70
2018-05-14T03:16:21.939Z,16.70
2018-05-14T03:18:49.743Z,16.70
2018-05-14T03:21:18.294Z,16.60
2018-05-14T03:23:50.705Z,16.70
2018-05-14T03:26:20.600Z,16.70
2018-05-14T03:28:52.400Z,16.60
2018-05-14T03:31:25.867Z,16.60
2018-05-14T03:33:58.456Z,16.60
2018-05-14T03:36:30.892Z,16.60
2018-05-14T03:38:59.744Z,16.60
2018-05-14T03:41:30.716Z,16.60
2018-05-14T03:43:59.780Z,16.60
2018-05-14T03:46:28.356Z,16.60
2018-05-14T03:48:56.108Z,16.60
2018-05-14T03:51:24.651Z,16.50
2018-05-14T03:53:52.395Z,16.50
2018-05-14T03:56:20.287Z,16.40
2018-05-14T03:58:59.776Z,16.40
2018-05-14T04:01:39.468Z,16.30
2018-05-14T04:04:19.002Z,16.30
2018-05-14T04:06:46.800Z,16.30
2018-05-14T04:09:15.324Z,16.20
2018-05-14T04:11:44.176Z,16.20
2018-05-14T04:14:12.681Z,16.30
2018-05-14T04:16:40.503Z,16.40
2018-05-14T04:19:08.976Z,16.30
2018-05-14T04:21:36.725Z,16.40
2018-05-14T04:24:04.510Z,16.40
2018-05-14T04:26:32.294Z,16.40
2018-05-14T04:29:00.791Z,16.50
2018-05-14T04:31:29.311Z,16.60
2018-05-14T04:33:57.051Z,16.50
2018-05-14T04:36:24.860Z,16.50
2018-05-14T04:38:52.572Z,16.60
2018-05-14T04:41:21.079Z,16.40
2018-05-14T04:43:48.832Z,16.40
2018-05-14T04:46:16.594Z,16.40
2018-05-14T04:48:44.361Z,16.40
2018-05-14T04:51:12.092Z,16.40
2018-05-14T04:53:40.069Z,16.50
2018-05-14T04:56:08.564Z,16.50
2018-05-14T04:58:37.065Z,16.60
2018-05-14T05:01:04.825Z,16.60
2018-05-14T05:03:32.585Z,16.50
2018-05-14T05:06:00.356Z,16.50
2018-05-14T05:08:28.254Z,16.50
2018-05-14T05:10:55.984Z,16.70
2018-05-14T05:13:23.713Z,16.90
2018-05-14T05:15:51.477Z,17.00
2018-05-14T05:18:19.218Z,17.30
2018-05-14T05:20:46.985Z,17.40
2018-05-14T05:23:14.724Z,17.50
2018-05-14T05:25:42.865Z,17.50
2018-05-14T05:28:11.362Z,17.50
2018-05-14T05:30:39.085Z,17.50
2018-05-14T05:33:06.840Z,17.50
2018-05-14T05:35:34.678Z,17.60
2018-05-14T05:38:02.447Z,17.60
2018-05-14T05:40:30.192Z,17.70
2018-05-14T05:42:57.966Z,17.80
2018-05-14T05:45:25.796Z,17.90
2018-05-14T05:47:53.500Z,17.80
2018-05-14T05:50:21.370Z,17.90
2018-05-14T05:52:49.110Z,18.10
2018-05-14T05:55:16.878Z,18.40
2018-05-14T05:57:47.147Z,18.40
2018-05-14T06:00:17.458Z,18.30
2018-05-14T06:02:45.297Z,18.30
2018-05-14T06:05:13.037Z,18.60
2018-05-14T06:07:42.023Z,19.80
2018-05-14T06:10:10.564Z,20.50
2018-05-14T06:12:38.290Z,20.50
2018-05-14T06:15:06.101Z,21.30
2018-05-14T06:17:34.084Z,21.70
2018-05-14T06:20:03.113Z,22.00
2018-05-14T06:22:31.739Z,22.50
2018-05-14T06:24:59.490Z,22.40
2018-05-14T06:27:27.224Z,22.90
2018-05-14T06:29:55.865Z,23.10
2018-05-14T06:32:23.590Z,23.10
2018-05-14T06:34:51.307Z,23.70
2018-05-14T06:37:19.075Z,24.10
2018-05-14T06:39:46.813Z,24.10
2018-05-14T06:42:14.616Z,24.00
2018-05-14T06:44:43.138Z,24.20
2018-05-14T06:47:10.889Z,24.10
2018-05-14T06:49:38.789Z,24.40
2018-05-14T06:52:06.522Z,24.20
2018-05-14T06:54:34.251Z,24.10
2018-05-14T06:57:02.115Z,24.20
2018-05-14T06:59:29.862Z,24.20
2018-05-14T07:01:57.595Z,24.30
2018-05-14T07:04:25.476Z,24.40
2018-05-14T07:06:53.331Z,24.40
2018-05-14T07:09:20.997Z,24.30
2018-05-14T07:11:48.780Z,24.50
2018-05-14T07:14:16.556Z,24.70
2018-05-14T07:16:44.337Z,24.90
2018-05-14T07:19:12.245Z,24.90
2018-05-14T07:21:39.988Z,24.80
2018-05-14T07:24:08.491Z,24.80
2018-05-14T07:26:36.270Z,24.80
2018-05-14T07:29:04.512Z,25.00
2018-05-14T07:31:33.010Z,25.40
2018-05-14T07:34:01.514Z,25.30
2018-05-14T07:36:29.279Z,25.20
2018-05-14T07:38:57.021Z,25.30
2018-05-14T07:41:25.566Z,25.40
2018-05-14T07:43:53.304Z,25.40
2018-05-14T07:46:21.035Z,25.20
2018-05-14T07:48:48.807Z,25.20
2018-05-14T07:51:16.572Z,24.90
2018-05-14T07:53:44.355Z,24.70
2018-05-14T07:56:12.085Z,24.80
2018-05-14T07:58:40.735Z,25.20
2018-05-14T08:01:08.464Z,25.20
2018-05-14T08:03:36.180Z,25.30
2018-05-14T08:06:04.095Z,25.60
2018-05-14T08:08:31.818Z,25.20
2018-05-14T08:10:59.544Z,25.00
2018-05-14T08:13:27.303Z,24.00
2018-05-14T08:15:55.946Z,23.80
2018-05-14T08:18:24.429Z,24.10
2018-05-14T08:20:52.911Z,24.40
2018-05-14T08:23:21.440Z,24.80
2018-05-14T08:25:49.177Z,24.70
2018-05-14T08:28:17.048Z,25.10
2018-05-14T08:30:44.774Z,25.40
2018-05-14T08:33:13.267Z,25.30
2018-05-14T08:35:41.808Z,25.00
2018-05-14T08:38:09.559Z,24.90
2018-05-14T08:40:37.329Z,25.10
2018-05-14T08:43:05.076Z,24.90
2018-05-14T08:45:32.870Z,24.60
2018-05-14T08:48:00.633Z,24.70
2018-05-14T08:50:28.519Z,24.80
2018-05-14T08:52:56.238Z,24.70
2018-05-14T08:55:23.974Z,24.40
2018-05-14T08:57:52.507Z,24.10
2018-05-14T09:00:20.245Z,24.10
2018-05-14T09:02:48.028Z,24.40
2018-05-14T09:05:15.754Z,24.30
2018-05-14T09:07:44.301Z,24.50
2018-05-14T09:10:12.026Z,24.50
2018-05-14T09:12:39.784Z,24.70
2018-05-14T09:15:07.525Z,24.60
2018-05-14T09:17:36.062Z,24.70
2018-05-14T09:20:03.853Z,24.70
2018-05-14T09:22:31.632Z,25.00
2018-05-14T09:25:00.142Z,25.00
2018-05-14T09:27:27.905Z,25.00
2018-05-14T09:29:55.664Z,24.80
2018-05-14T09:32:23.420Z,24.90
2018-05-14T09:34:52.076Z,24.90
2018-05-14T09:37:19.810Z,24.90
2018-05-14T09:39:47.591Z,24.80
2018-05-14T09:42:15.316Z,24.90
2018-05-14T09:44:43.076Z,24.90
2018-05-14T09:47:10.839Z,25.10
2018-05-14T09:49:38.587Z,25.20
2018-05-14T09:52:07.111Z,25.20
2018-05-14T09:54:34.893Z,25.20
2018-05-14T09:57:02.620Z,25.40
2018-05-14T09:59:30.424Z,25.80
2018-05-14T10:01:58.144Z,25.80
2018-05-14T10:04:25.861Z,26.00
2018-05-14T10:06:53.626Z,26.00
2018-05-14T10:09:21.375Z,26.10
2018-05-14T10:11:49.131Z,26.10
2018-05-14T10:14:16.882Z,25.90
2018-05-14T10:16:44.683Z,25.70
2018-05-14T10:19:12.479Z,25.60
2018-05-14T10:21:40.981Z,26.20
2018-05-14T10:24:09.238Z,26.20
2018-05-14T10:26:37.724Z,26.50
2018-05-14T10:29:06.209Z,26.50
2018-05-14T10:31:34.010Z,26.50
2018-05-14T10:34:01.747Z,26.70
2018-05-14T10:36:29.474Z,26.60
2018-05-14T10:38:57.244Z,26.70
2018-05-14T10:41:26.242Z,27.00
2018-05-14T10:43:54.010Z,27.00
2018-05-14T10:46:22.581Z,26.60
2018-05-14T10:48:50.343Z,26.60
2018-05-14T10:51:18.080Z,26.50
2018-05-14T10:53:45.946Z,26.60
2018-05-14T10:56:13.698Z,26.90
2018-05-14T10:58:41.436Z,27.00
2018-05-14T11:01:09.318Z,27.00
2018-05-14T11:03:37.054Z,27.00
2018-05-14T11:06:05.563Z,26.50
2018-05-14T11:08:33.337Z,26.50
2018-05-14T11:11:01.112Z,26.50
2018-05-14T11:13:28.863Z,26.60
2018-05-14T11:15:56.730Z,26.80
2018-05-14T11:18:24.588Z,26.90
2018-05-14T11:20:52.329Z,26.90
2018-05-14T11:23:20.828Z,27.10
2018-05-14T11:25:48.640Z,27.20
2018-05-14T11:28:16.363Z,26.90
2018-05-14T11:30:44.610Z,27.00
2018-05-14T11:33:13.104Z,27.40
2018-05-14T11:35:41.593Z,27.30
2018-05-14T11:38:09.382Z,27.30
2018-05-14T11:40:37.108Z,27.20
2018-05-14T11:43:05.618Z,27.20
2018-05-14T11:45:33.857Z,27.10
2018-05-14T11:48:02.345Z,27.30
2018-05-14T11:50:30.837Z,27.50
2018-05-14T11:52:58.589Z,27.40
2018-05-14T11:55:27.092Z,28.00
2018-05-14T11:57:54.885Z,27.90
2018-05-14T12:00:22.692Z,28.00
2018-05-14T12:02:51.192Z,28.90
2018-05-14T12:05:18.954Z,28.90
2018-05-14T12:07:47.596Z,29.20
2018-05-14T12:10:15.314Z,29.20
2018-05-14T12:12:43.053Z,28.80
2018-05-14T12:15:11.583Z,28.70
2018-05-14T12:17:39.444Z,28.70
2018-05-14T12:20:07.171Z,28.50
2018-05-14T12:22:35.659Z,28.50
2018-05-14T12:25:04.329Z,28.70
2018-05-14T12:27:32.819Z,28.90
2018-05-14T12:30:01.322Z,29.00
2018-05-14T12:32:29.099Z,28.90
2018-05-14T12:34:56.861Z,29.20
2018-05-14T12:37:24.633Z,29.40
2018-05-14T12:39:52.347Z,29.30
2018-05-14T12:42:20.976Z,29.80
2018-05-14T12:44:48.694Z,29.70
2018-05-14T12:47:17.187Z,29.80
2018-05-14T12:49:45.831Z,29.50
2018-05-14T12:52:14.340Z,29.50
2018-05-14T12:54:42.829Z,29.60
2018-05-14T12:57:11.364Z,29.30
2018-05-14T12:59:39.116Z,29.30
2018-05-14T13:02:06.897Z,28.90
2018-05-14T13:04:34.671Z,28.70
2018-05-14T13:07:02.625Z,29.20
2018-05-14T13:09:31.072Z,29.40
2018-05-14T13:11:58.820Z,29.40
2018-05-14T13:14:27.097Z,29.30
2018-05-14T13:16:54.964Z,29.30
2018-05-14T13:19:22.688Z,29.60
2018-05-14T13:21:50.474Z,30.00
2018-05-14T13:24:18.968Z,29.80
2018-05-14T13:26:46.689Z,29.80
2018-05-14T13:29:14.442Z,29.60
2018-05-14T13:31:42.311Z,29.50
2018-05-14T13:34:10.028Z,29.40
2018-05-14T13:36:37.761Z,29.20
2018-05-14T13:39:06.338Z,29.00
2018-05-14T13:41:34.068Z,29.00
2018-05-14T13:44:02.245Z,29.10
2018-05-14T13:46:29.951Z,29.30
2018-05-14T13:48:58.480Z,28.70
2018-05-14T13:51:26.241Z,28.70
2018-05-14T13:53:53.964Z,28.60
2018-05-14T13:56:22.954Z,28.80
2018-05-14T13:58:51.463Z,28.60
2018-05-14T14:01:19.184Z,28.60
2018-05-14T14:03:47.720Z,28.70
2018-05-14T14:06:15.522Z,28.70
2018-05-14T14:08:43.248Z,28.80
2018-05-14T14:11:10.972Z,28.60
2018-05-14T14:13:39.506Z,28.20
2018-05-14T14:16:07.232Z,28.20
2018-05-14T14:18:35.030Z,28.20
2018-05-14T14:21:02.760Z,28.10
2018-05-14T14:23:30.743Z,28.20
2018-05-14T14:25:59.110Z,28.50
2018-05-14T14:28:26.816Z,28.50
2018-05-14T14:30:54.714Z,28.40
2018-05-14T14:33:23.209Z,28.60
2018-05-14T14:35:50.981Z,28.60
2018-05-14T14:38:18.759Z,28.60
2018-05-14T14:40:46.541Z,28.60
2018-05-14T14:43:14.362Z,28.50
2018-05-14T14:45:42.103Z,28.60
2018-05-14T14:48:10.635Z,28.60
2018-05-14T14:50:38.405Z,28.50
2018-05-14T14:53:06.190Z,28.60
2018-05-14T14:55:33.909Z,28.50
2018-05-14T14:58:01.677Z,28.40
2018-05-14T15:00:29.514Z,28.30
2018-05-14T15:02:58.047Z,28.60
2018-05-14T15:05:25.766Z,28.60
2018-05-14T15:07:53.559Z,28.70
2018-05-14T15:10:21.303Z,28.50
2018-05-14T15:12:49.016Z,28.50
2018-05-14T15:15:16.782Z,28.60
2018-05-14T15:17:44.576Z,28.70
2018-05-14T15:20:13.105Z,28.50
2018-05-14T15:22:40.977Z,28.50
2018-05-14T15:25:08.706Z,28.50
2018-05-14T15:27:36.483Z,28.50
2018-05-14T15:30:04.309Z,28.40
2018-05-14T15:32:32.979Z,28.50
2018-05-14T15:35:01.161Z,28.50
2018-05-14T15:37:29.643Z,28.50
2018-05-14T15:39:58.140Z,28.50
2018-05-14T15:42:25.952Z,28.50
2018-05-14T15:44:53.675Z,28.60
2018-05-14T15:47:21.412Z,28.40
2018-05-14T15:49:49.996Z,28.20
2018-05-14T15:52:17.785Z,28.20
2018-05-14T15:54:45.523Z,28.30
2018-05-14T15:57:14.008Z,28.50
2018-05-14T15:59:42.535Z,28.60
2018-05-14T16:02:10.324Z,28.50
2018-05-14T16:04:38.326Z,28.30
2018-05-14T16:07:06.859Z,28.20
2018-05-14T16:09:34.624Z,28.20
2018-05-14T16:12:02.734Z,28.10
2018-05-14T16:14:31.288Z,28.00
2018-05-14T16:16:58.983Z,28.00
2018-05-14T16:19:27.537Z,28.10
2018-05-14T16:21:55.266Z,28.10
2018-05-14T16:24:23.000Z,28.00
2018-05-14T16:26:50.754Z,28.20
2018-05-14T16:29:18.484Z,28.10
2018-05-14T16:31:46.273Z,28.10
2018-05-14T16:34:14.761Z,28.00
2018-05-14T16:36:43.295Z,27.90
2018-05-14T16:39:11.101Z,27.80
2018-05-14T16:41:39.608Z,27.80
2018-05-14T16:44:07.334Z,27.80
2018-05-14T16:46:35.925Z,27.80
2018-05-14T16:49:04.433Z,27.80
2018-05-14T16:51:32.168Z,27.80
2018-05-14T16:54:01.055Z,27.70
2018-05-14T16:56:29.585Z,27.80
2018-05-14T16:58:57.342Z,27.80
2018-05-14T17:01:25.115Z,27.60
2018-05-14T17:03:52.843Z,27.70
2018-05-14T17:06:20.616Z,27.60
2018-05-14T17:08:48.338Z,27.70
2018-05-14T17:11:16.120Z,27.70
2018-05-14T17:13:45.208Z,27.70
2018-05-14T17:16:13.711Z,27.60
2018-05-14T17:18:41.541Z,27.60
2018-05-14T17:21:09.276Z,27.40
2018-05-14T17:23:37.057Z,27.30
2018-05-14T17:26:05.247Z,27.20
2018-05-14T17:28:33.743Z,26.90
2018-05-14T17:31:03.450Z,26.90
2018-05-14T17:33:32.826Z,26.60
2018-05-14T17:36:01.109Z,26.70
2018-05-14T17:38:30.733Z,26.60
2018-05-14T17:40:59.136Z,26.50
2018-05-14T17:43:27.970Z,26.50
2018-05-14T17:45:56.663Z,26.60
2018-05-14T17:48:25.193Z,26.60
2018-05-14T17:50:53.821Z,26.60
2018-05-14T17:53:21.653Z,26.50
2018-05-14T17:55:49.443Z,26.40
2018-05-14T17:58:17.219Z,26.30
2018-05-14T18:00:45.016Z,26.30
2018-05-14T18:03:12.745Z,26.30
2018-05-14T18:05:40.476Z,26.20
2018-05-14T18:08:09.129Z,26.20
2018-05-14T18:10:42.276Z,26.10
2018-05-14T18:13:10.171Z,26.10
2018-05-14T18:15:38.696Z,26.10
2018-05-14T18:18:06.447Z,26.00
2018-05-14T18:20:38.167Z,26.00
2018-05-14T18:23:06.930Z,25.90
2018-05-14T18:25:41.544Z,25.90
2018-05-14T18:28:15.479Z,26.00
2018-05-14T18:30:43.370Z,26.00
2018-05-14T18:33:11.135Z,26.00
2018-05-14T18:35:44.496Z,26.00
2018-05-14T18:38:12.230Z,25.90
2018-05-14T18:40:40.756Z,25.70
2018-05-14T18:43:09.302Z,25.70
2018-05-14T18:45:37.088Z,25.70
2018-05-14T18:48:04.977Z,25.70
2018-05-14T18:50:32.723Z,25.70
2018-05-14T18:53:01.222Z,25.70
2018-05-14T18:55:28.979Z,25.70
2018-05-14T18:57:57.475Z,25.50
2018-05-14T19:00:25.352Z,25.50
2018-05-14T19:02:53.091Z,25.40
2018-05-14T19:05:21.801Z,25.40
2018-05-14T19:07:52.220Z,25.20
2018-05-14T19:10:27.108Z,25.10
2018-05-14T19:12:56.045Z,25.10
2018-05-14T19:15:31.189Z,25.20
2018-05-14T19:18:00.398Z,25.20
2018-05-14T19:20:28.133Z,25.20
2018-05-14T19:23:01.619Z,25.20
2018-05-14T19:25:29.515Z,25.10
2018-05-14T19:28:03.217Z,25.00
2018-05-14T19:30:31.724Z,25.00
2018-05-14T19:33:00.451Z,25.00
2018-05-14T19:35:34.723Z,25.00
2018-05-14T19:38:04.459Z,24.90
2018-05-14T19:40:41.634Z,24.90
2018-05-14T19:43:10.033Z,24.80
2018-05-14T19:45:38.609Z,24.60
2018-05-14T19:48:07.261Z,24.60
2018-05-14T19:50:35.737Z,24.60
2018-05-14T19:53:03.509Z,24.60
2018-05-14T19:55:31.250Z,24.50
2018-05-14T19:57:59.839Z,24.40
2018-05-14T20:00:28.460Z,24.40
2018-05-14T20:02:57.663Z,24.30
2018-05-14T20:05:26.362Z,24.30
2018-05-14T20:07:54.166Z,24.30
2018-05-14T20:10:21.924Z,24.30
2018-05-14T20:12:50.057Z,24.20
2018-05-14T20:15:17.808Z,24.10
2018-05-14T20:17:46.956Z,24.10
2018-05-14T20:20:15.108Z,24.00
2018-05-14T20:22:42.907Z,24.00
2018-05-14T20:25:10.733Z,23.90
2018-05-14T20:27:38.561Z,23.80
2018-05-14T20:30:08.283Z,23.70
2018-05-14T20:32:37.338Z,23.60
2018-05-14T20:35:06.137Z,23.60
2018-05-14T20:37:34.337Z,23.60
2018-05-14T20:40:03.172Z,23.40
2018-05-14T20:42:31.612Z,23.40
2018-05-14T20:45:00.019Z,23.30
2018-05-14T20:47:29.023Z,23.20
2018-05-14T20:49:58.083Z,23.20
2018-05-14T20:52:26.880Z,23.20
2018-05-14T20:54:55.465Z,23.10
2018-05-14T20:57:24.351Z,23.10
2018-05-14T20:59:52.208Z,23.10
2018-05-14T21:02:20.090Z,23.10
2018-05-14T21:04:47.822Z,23.00
2018-05-14T21:07:17.157Z,22.90
2018-05-14T21:09:47.361Z,22.90
2018-05-14T21:12:16.193Z,22.90
2018-05-14T21:14:45.122Z,22.90
2018-05-14T21:17:13.049Z,22.90
2018-05-14T21:19:41.683Z,22.80
2018-05-14T21:22:09.787Z,22.80
2018-05-14T21:24:37.591Z,22.70
2018-05-14T21:27:05.479Z,22.80
2018-05-14T21:29:33.213Z,22.70
2018-05-14T21:32:01.617Z,22.70
2018-05-14T21:34:30.287Z,22.60
2018-05-14T21:36:58.775Z,22.50
2018-05-14T21:39:27.304Z,22.40
2018-05-14T21:41:55.036Z,22.40
2018-05-14T21:44:24.044Z,22.30
2018-05-14T21:46:53.518Z,22.10
2018-05-14T21:49:23.270Z,22.10
2018-05-14T21:51:51.358Z,22.10
2018-05-14T21:54:19.077Z,22.10
2018-05-14T21:56:46.814Z,22.00
2018-05-14T21:59:15.330Z,21.90
2018-05-14T22:01:43.073Z,21.90
2018-05-14T22:04:11.739Z,21.80
2018-05-14T22:06:40.242Z,21.70
2018-05-14T22:09:07.964Z,21.70
2018-05-14T22:11:35.713Z,21.60
2018-05-14T22:14:03.517Z,21.30
2018-05-14T22:16:32.044Z,21.60
2018-05-14T22:19:00.266Z,21.60
2018-05-14T22:21:28.790Z,21.60
2018-05-14T22:23:56.516Z,21.60
2018-05-14T22:26:25.081Z,21.40
2018-05-14T22:28:53.625Z,21.40
2018-05-14T22:31:21.375Z,21.40
2018-05-14T22:33:49.096Z,21.30
2018-05-14T22:36:17.740Z,21.00
2018-05-14T22:38:45.466Z,21.00
2018-05-14T22:41:13.194Z,21.00
2018-05-14T22:43:40.956Z,20.90
2018-05-14T22:46:08.706Z,20.80
2018-05-14T22:48:36.575Z,20.70
2018-05-14T22:51:04.334Z,20.60
2018-05-14T22:53:32.137Z,20.50
2018-05-14T22:56:00.615Z,20.60
2018-05-14T22:58:29.099Z,20.50
2018-05-14T23:00:57.805Z,20.50
2018-05-14T23:03:26.341Z,20.50
2018-05-14T23:05:54.121Z,20.50
2018-05-14T23:08:22.648Z,20.40
2018-05-14T23:10:50.498Z,20.40
2018-05-14T23:13:18.284Z,20.40
2018-05-14T23:15:46.036Z,20.40
2018-05-14T23:18:13.801Z,20.30
2018-05-14T23:20:41.525Z,20.30
2018-05-14T23:23:10.081Z,20.30
2018-05-14T23:25:37.805Z,20.30
2018-05-14T23:28:05.544Z,20.20
2018-05-14T23:30:33.323Z,20.20
2018-05-14T23:33:01.074Z,20.20
2018-05-14T23:35:28.953Z,20.20
2018-05-14T23:37:56.674Z,20.10
2018-05-14T23:40:24.403Z,20.10
2018-05-14T23:42:52.172Z,20.10
2018-05-14T23:45:19.884Z,20.10
2018-05-14T23:47:48.420Z,19.90
2018-05-14T23:50:16.153Z,19.90
2018-05-14T23:52:43.909Z,19.90
2018-05-14T23:55:11.648Z,19.80
2018-05-14T23:57:40.294Z,19.70
